createdAt,value
2018-12-22T00:02:54.703Z,11.40
2018-12-22T00:05:22.930Z,11.40
2018-12-22T00:07:51.327Z,11.40
2018-12-22T00:10:19.607Z,11.30
2018-12-22T00:12:47.988Z,11.30
2018-12-22T00:15:16.212Z,11.20
2018-12-22T00:17:44.443Z,11.20
2018-12-22T00:20:12.943Z,11.20
2018-12-22T00:22:41.238Z,11.20
2018-12-22T00:25:09.567Z,11.20
2018-12-22T00:27:38.834Z,11.20
2018-12-22T00:30:08.271Z,11.30
2018-12-22T00:32:36.532Z,11.30
2018-12-22T00:35:06.135Z,11.30
2018-12-22T00:37:34.450Z,11.30
2018-12-22T00:40:02.753Z,11.30
2018-12-22T00:42:31.255Z,11.30
2018-12-22T00:44:59.552Z,11.30
2018-12-22T00:47:27.791Z,11.20
2018-12-22T00:49:56.078Z,11.20
2018-12-22T00:52:24.463Z,11.10
2018-12-22T00:54:52.899Z,11.00
2018-12-22T00:57:21.183Z,11.00
2018-12-22T00:59:49.431Z,11.00
2018-12-22T01:02:17.774Z,10.90
2018-12-22T01:04:46.105Z,10.80
2018-12-22T01:07:14.458Z,10.80
2018-12-22T01:09:42.711Z,10.70
2018-12-22T01:12:10.971Z,10.70
2018-12-22T01:14:39.398Z,10.70
2018-12-22T01:17:07.771Z,10.70
2018-12-22T01:19:36.429Z,10.60
2018-12-22T01:22:04.955Z,10.60
2018-12-22T01:24:33.194Z,10.60
2018-12-22T01:27:01.504Z,10.60
2018-12-22T01:29:29.763Z,10.60
2018-12-22T01:31:58.143Z,10.50
2018-12-22T01:34:26.466Z,10.60
2018-12-22T01:36:54.911Z,10.60
2018-12-22T01:39:23.186Z,10.50
2018-12-22T01:41:51.567Z,10.60
2018-12-22T01:44:19.788Z,10.50
2018-12-22T01:46:48.200Z,10.50
2018-12-22T01:49:16.604Z,10.50
2018-12-22T01:51:45.070Z,10.50
2018-12-22T01:54:13.515Z,10.50
2018-12-22T01:56:41.779Z,10.50
2018-12-22T01:59:10.038Z,10.50
2018-12-22T02:01:38.620Z,10.50
2018-12-22T02:04:06.863Z,10.60
2018-12-22T02:06:35.094Z,10.60
2018-12-22T02:09:04.687Z,10.60
2018-12-22T02:11:33.120Z,10.70
2018-12-22T02:14:01.346Z,10.60
2018-12-22T02:16:29.583Z,10.70
2018-12-22T02:18:57.951Z,10.70
2018-12-22T02:21:26.183Z,10.70
2018-12-22T02:23:54.504Z,10.60
2018-12-22T02:26:22.780Z,10.70
2018-12-22T02:28:56.485Z,10.60
2018-12-22T02:31:21.292Z,10.60
2018-12-22T02:33:49.646Z,10.60
2018-12-22T02:36:17.867Z,10.70
2018-12-22T02:38:46.098Z,10.60
2018-12-22T02:41:14.673Z,10.70
2018-12-22T02:43:42.982Z,10.70
2018-12-22T02:46:11.426Z,10.60
2018-12-22T02:48:39.856Z,10.70
2018-12-22T02:51:08.209Z,10.60
2018-12-22T02:53:36.682Z,10.60
2018-12-22T02:56:04.988Z,10.70
2018-12-22T02:58:33.199Z,10.70
2018-12-22T03:01:01.446Z,10.70
2018-12-22T03:03:29.671Z,10.80
2018-12-22T03:05:57.915Z,10.80
2018-12-22T03:08:26.152Z,10.80
2018-12-22T03:10:54.522Z,10.90
2018-12-22T03:13:22.786Z,10.90
2018-12-22T03:15:51.071Z,10.90
2018-12-22T03:18:19.448Z,10.90
2018-12-22T03:20:47.778Z,10.90
2018-12-22T03:23:16.057Z,10.90
2018-12-22T03:25:44.387Z,10.90
2018-12-22T03:28:12.693Z,10.90
2018-12-22T03:30:40.905Z,10.80
2018-12-22T03:33:09.242Z,10.80
2018-12-22T03:35:37.591Z,10.80
2018-12-22T03:38:05.895Z,10.80
2018-12-22T03:40:34.160Z,10.80
2018-12-22T03:43:02.424Z,10.80
2018-12-22T03:45:30.725Z,10.80
2018-12-22T03:47:58.967Z,10.90
2018-12-22T03:50:27.263Z,10.90
2018-12-22T03:52:55.619Z,10.90
2018-12-22T03:55:23.931Z,10.90
2018-12-22T03:57:52.224Z,10.90
2018-12-22T04:00:20.671Z,11.00
2018-12-22T04:02:49.785Z,11.00
2018-12-22T04:05:18.034Z,11.00
2018-12-22T04:07:46.420Z,11.00
2018-12-22T04:10:15.311Z,11.10
2018-12-22T04:12:43.559Z,11.10
2018-12-22T04:15:11.803Z,11.10
2018-12-22T04:17:40.017Z,11.10
2018-12-22T04:20:08.287Z,11.10
2018-12-22T04:22:36.519Z,11.20
2018-12-22T04:25:05.418Z,11.20
2018-12-22T04:27:33.711Z,11.20
2018-12-22T04:30:02.102Z,11.20
2018-12-22T04:32:30.788Z,11.20
2018-12-22T04:34:59.011Z,11.30
2018-12-22T04:37:27.246Z,11.30
2018-12-22T04:39:55.475Z,11.40
2018-12-22T04:42:23.798Z,11.40
2018-12-22T04:44:52.044Z,11.30
2018-12-22T04:47:24.363Z,11.40
2018-12-22T04:49:52.715Z,11.40
2018-12-22T04:52:20.960Z,11.40
2018-12-22T04:54:49.284Z,11.50
2018-12-22T04:57:17.672Z,11.50
2018-12-22T04:59:46.044Z,11.50
2018-12-22T05:02:14.416Z,11.60
2018-12-22T05:04:42.648Z,11.60
2018-12-22T05:07:11.039Z,11.60
2018-12-22T05:09:39.311Z,11.70
2018-12-22T05:12:07.820Z,11.60
2018-12-22T05:14:36.096Z,11.60
2018-12-22T05:17:04.359Z,11.60
2018-12-22T05:19:32.608Z,11.60
2018-12-22T05:22:01.069Z,11.60
2018-12-22T05:24:29.289Z,11.60
2018-12-22T05:26:57.693Z,11.70
2018-12-22T05:29:25.906Z,11.70
2018-12-22T05:31:54.280Z,11.70
2018-12-22T05:34:22.725Z,11.70
2018-12-22T05:36:51.099Z,11.60
2018-12-22T05:39:19.440Z,11.60
2018-12-22T05:41:47.862Z,11.70
2018-12-22T05:44:16.183Z,11.70
2018-12-22T05:46:44.645Z,11.70
2018-12-22T05:49:12.894Z,11.70
2018-12-22T05:51:41.373Z,11.70
2018-12-22T05:54:09.618Z,11.70
2018-12-22T05:56:37.842Z,11.70
2018-12-22T05:59:06.055Z,11.70
2018-12-22T06:01:34.479Z,11.70
2018-12-22T06:04:02.708Z,11.80
2018-12-22T06:06:30.947Z,11.70
2018-12-22T06:08:59.203Z,11.70
2018-12-22T06:11:27.789Z,11.80
2018-12-22T06:13:56.423Z,11.80
2018-12-22T06:16:24.679Z,11.70
2018-12-22T06:18:52.901Z,11.60
2018-12-22T06:21:21.149Z,11.70
2018-12-22T06:23:49.353Z,11.60
2018-12-22T06:26:17.566Z,11.60
2018-12-22T06:28:45.802Z,11.60
2018-12-22T06:31:14.099Z,11.60
2018-12-22T06:36:16.791Z,11.60
2018-12-22T06:38:45.176Z,11.60
2018-12-22T06:41:13.434Z,11.60
2018-12-22T06:43:41.808Z,11.70
2018-12-22T06:46:10.099Z,11.60
2018-12-22T06:48:38.376Z,11.70
2018-12-22T06:51:06.650Z,11.80
2018-12-22T06:53:34.896Z,11.80
2018-12-22T06:56:03.111Z,11.80
2018-12-22T06:58:31.379Z,11.80
2018-12-22T07:00:59.630Z,11.80
2018-12-22T07:03:27.840Z,11.80
2018-12-22T07:05:56.100Z,11.80
2018-12-22T07:08:24.444Z,11.80
2018-12-22T07:10:52.660Z,11.80
2018-12-22T07:13:21.139Z,11.80
2018-12-22T07:15:49.415Z,11.80
2018-12-22T07:18:17.652Z,11.80
2018-12-22T07:20:45.902Z,11.80
2018-12-22T07:23:14.138Z,11.80
2018-12-22T07:25:42.420Z,11.80
2018-12-22T07:28:10.800Z,11.90
2018-12-22T07:30:39.019Z,11.90
2018-12-22T07:33:07.248Z,11.90
2018-12-22T07:35:35.469Z,11.90
2018-12-22T07:38:03.739Z,11.90
2018-12-22T07:40:32.080Z,11.80
2018-12-22T07:43:00.334Z,11.80
2018-12-22T07:45:28.584Z,11.80
2018-12-22T07:47:56.823Z,11.80
2018-12-22T07:50:25.108Z,11.80
2018-12-22T07:52:53.557Z,11.80
2018-12-22T07:55:21.839Z,11.80
2018-12-22T07:57:50.127Z,11.80
2018-12-22T08:00:18.367Z,11.90
2018-12-22T08:02:46.647Z,12.00
2018-12-22T08:05:14.952Z,11.90
2018-12-22T08:07:43.260Z,12.00
2018-12-22T08:10:11.503Z,12.00
2018-12-22T08:12:39.812Z,12.00
2018-12-22T08:15:08.048Z,12.00
2018-12-22T08:17:36.334Z,12.00
2018-12-22T08:20:06.600Z,12.00
2018-12-22T08:22:34.825Z,11.90
2018-12-22T08:25:04.497Z,11.90
2018-12-22T08:27:32.719Z,11.90
2018-12-22T08:30:01.226Z,11.90
2018-12-22T08:32:29.519Z,11.90
2018-12-22T08:34:57.788Z,11.90
2018-12-22T08:37:26.020Z,11.90
2018-12-22T08:39:54.335Z,11.90
2018-12-22T08:42:22.595Z,11.80
2018-12-22T08:44:50.927Z,11.90
2018-12-22T08:47:19.162Z,11.80
2018-12-22T08:49:47.509Z,11.80
2018-12-22T08:52:15.755Z,11.80
2018-12-22T08:54:44.306Z,11.70
2018-12-22T08:57:12.630Z,11.70
2018-12-22T08:59:40.907Z,11.60
2018-12-22T09:02:09.189Z,11.60
2018-12-22T09:04:37.471Z,11.60
2018-12-22T09:07:05.718Z,11.60
2018-12-22T09:09:33.963Z,11.60
2018-12-22T09:12:02.185Z,11.60
2018-12-22T09:14:30.419Z,11.60
2018-12-22T09:16:58.636Z,11.60
2018-12-22T09:19:26.874Z,11.70
2018-12-22T09:21:55.134Z,11.70
2018-12-22T09:24:23.360Z,11.70
2018-12-22T09:26:51.642Z,11.70
2018-12-22T09:29:19.960Z,11.60
2018-12-22T09:31:48.311Z,11.60
2018-12-22T09:34:16.571Z,11.60
2018-12-22T09:36:44.818Z,11.60
2018-12-22T09:39:13.093Z,11.60
2018-12-22T09:41:41.395Z,11.60
2018-12-22T09:44:09.711Z,11.60
2018-12-22T09:46:38.014Z,11.60
2018-12-22T09:49:06.331Z,11.60
2018-12-22T09:51:34.549Z,11.60
2018-12-22T09:54:02.776Z,11.70
2018-12-22T09:56:31.052Z,11.70
2018-12-22T09:58:59.355Z,11.70
2018-12-22T10:01:27.592Z,11.80
2018-12-22T10:03:55.860Z,11.80
2018-12-22T10:06:24.089Z,11.90
2018-12-22T10:08:52.507Z,11.90
2018-12-22T10:11:20.735Z,11.90
2018-12-22T10:13:48.987Z,11.90
2018-12-22T10:16:17.217Z,12.00
2018-12-22T10:18:45.488Z,11.90
2018-12-22T10:21:13.758Z,11.90
2018-12-22T10:23:42.062Z,11.90
2018-12-22T10:26:10.367Z,11.90
2018-12-22T10:28:38.595Z,12.00
2018-12-22T10:31:06.891Z,12.00
2018-12-22T10:33:35.119Z,12.00
2018-12-22T10:36:04.032Z,12.00
2018-12-22T10:38:32.362Z,11.90
2018-12-22T10:41:00.656Z,11.90
2018-12-22T10:43:28.911Z,12.00
2018-12-22T10:45:57.163Z,11.90
2018-12-22T10:48:25.433Z,11.90
2018-12-22T10:50:54.258Z,11.90
2018-12-22T10:53:22.515Z,11.80
2018-12-22T10:55:50.870Z,11.70
2018-12-22T10:58:19.192Z,11.60
2018-12-22T11:00:47.577Z,11.60
2018-12-22T11:03:15.839Z,11.60
2018-12-22T11:05:44.055Z,11.60
2018-12-22T11:08:12.283Z,11.50
2018-12-22T11:10:40.558Z,11.50
2018-12-22T11:13:08.806Z,11.50
2018-12-22T11:15:37.043Z,11.40
2018-12-22T11:18:05.300Z,11.40
2018-12-22T11:20:33.715Z,11.40
2018-12-22T11:23:01.999Z,11.40
2018-12-22T11:25:30.215Z,11.40
2018-12-22T11:27:58.512Z,11.40
2018-12-22T11:30:26.744Z,11.40
2018-12-22T11:32:54.992Z,11.40
2018-12-22T11:35:23.282Z,11.40
2018-12-22T11:37:51.536Z,11.40
2018-12-22T11:40:19.791Z,11.40
2018-12-22T11:42:48.057Z,11.40
2018-12-22T11:45:16.336Z,11.40
2018-12-22T11:47:48.261Z,11.40
2018-12-22T11:50:23.815Z,11.30
2018-12-22T11:52:52.338Z,11.30
2018-12-22T11:55:20.599Z,11.30
2018-12-22T11:57:48.901Z,11.30
2018-12-22T12:00:17.240Z,11.30
2018-12-22T12:02:45.462Z,11.30
2018-12-22T12:05:13.886Z,11.30
2018-12-22T12:07:42.379Z,11.20
2018-12-22T12:10:10.767Z,11.20
2018-12-22T12:12:39.050Z,11.20
2018-12-22T12:15:14.610Z,11.20
2018-12-22T12:20:45.456Z,11.20
2018-12-22T12:23:13.737Z,11.30
2018-12-22T12:25:42.025Z,11.30
2018-12-22T12:28:10.278Z,11.30
2018-12-22T12:30:38.565Z,11.30
2018-12-22T12:33:06.827Z,11.30
2018-12-22T12:35:35.119Z,11.20
2018-12-22T12:38:03.366Z,11.20
2018-12-22T12:40:31.696Z,11.20
2018-12-22T12:42:59.971Z,11.20
2018-12-22T12:45:28.219Z,11.30
2018-12-22T12:47:56.483Z,11.30
2018-12-22T12:50:25.144Z,11.20
2018-12-22T12:52:53.467Z,11.20
2018-12-22T12:55:21.751Z,11.10
2018-12-22T12:57:49.981Z,11.10
2018-12-22T13:00:20.838Z,11.10
2018-12-22T13:02:49.114Z,11.10
2018-12-22T13:05:17.379Z,11.10
2018-12-22T13:07:45.599Z,11.00
2018-12-22T13:10:13.867Z,11.00
2018-12-22T13:13:04.676Z,11.00
2018-12-22T13:15:33.010Z,11.00
2018-12-22T13:18:01.394Z,11.00
2018-12-22T13:20:29.747Z,11.00
2018-12-22T13:22:58.043Z,11.00
2018-12-22T13:25:26.298Z,11.00
2018-12-22T13:27:54.529Z,11.00
2018-12-22T13:30:22.779Z,11.00
2018-12-22T13:32:51.031Z,11.00
2018-12-22T13:35:19.369Z,11.00
2018-12-22T13:37:47.635Z,11.10
2018-12-22T13:40:16.013Z,11.10
2018-12-22T13:42:44.258Z,11.10
2018-12-22T13:45:12.590Z,11.10
2018-12-22T13:47:41.106Z,11.10
2018-12-22T13:50:13.900Z,11.10
2018-12-22T13:52:42.175Z,11.10
2018-12-22T13:55:10.937Z,11.10
2018-12-22T13:57:43.741Z,11.10
2018-12-22T14:00:23.029Z,11.10
2018-12-22T14:02:51.315Z,11.10
2018-12-22T14:05:28.360Z,11.10
2018-12-22T14:07:56.658Z,11.10
2018-12-22T14:10:24.886Z,11.10
2018-12-22T14:12:53.380Z,11.10
2018-12-22T14:15:25.231Z,11.10
2018-12-22T14:18:08.688Z,11.10
2018-12-22T14:20:36.938Z,11.10
2018-12-22T14:23:05.190Z,11.10
2018-12-22T14:25:33.434Z,11.10
2018-12-22T14:28:01.652Z,11.10
2018-12-22T14:30:29.961Z,11.10
2018-12-22T14:32:58.272Z,11.10
2018-12-22T14:35:31.991Z,11.20
2018-12-22T14:38:00.227Z,11.20
2018-12-22T14:40:28.676Z,11.20
2018-12-22T14:42:57.076Z,11.20
2018-12-22T14:45:25.474Z,11.10
2018-12-22T14:47:53.728Z,11.10
2018-12-22T14:50:21.988Z,11.10
2018-12-22T14:52:50.268Z,11.10
2018-12-22T14:55:18.576Z,11.10
2018-12-22T14:57:56.763Z,11.00
2018-12-22T15:00:25.019Z,10.80
2018-12-22T15:02:53.329Z,10.80
2018-12-22T15:05:21.699Z,10.80
2018-12-22T15:07:49.975Z,10.70
2018-12-22T15:10:18.239Z,10.70
2018-12-22T15:12:46.567Z,10.60
2018-12-22T15:15:14.901Z,10.60
2018-12-22T15:17:43.968Z,10.50
2018-12-22T15:20:34.084Z,10.40
2018-12-22T15:23:05.044Z,10.30
2018-12-22T15:25:33.311Z,10.20
2018-12-22T15:28:01.561Z,10.20
2018-12-22T15:30:29.863Z,10.20
2018-12-22T15:32:58.108Z,10.20
2018-12-22T15:35:26.388Z,10.10
2018-12-22T15:37:54.608Z,10.10
2018-12-22T15:40:23.066Z,10.10
2018-12-22T15:42:51.291Z,10.10
2018-12-22T15:45:19.697Z,10.10
2018-12-22T15:47:47.953Z,10.10
2018-12-22T15:50:31.363Z,10.10
2018-12-22T15:52:59.960Z,10.10
2018-12-22T15:55:28.261Z,10.10
2018-12-22T15:57:56.551Z,10.10
2018-12-22T16:00:24.924Z,10.10
2018-12-22T16:02:53.651Z,10.00
2018-12-22T16:05:22.069Z,10.10
2018-12-22T16:07:50.300Z,10.10
2018-12-22T16:10:18.635Z,10.10
2018-12-22T16:12:46.926Z,10.10
2018-12-22T16:15:22.361Z,10.20
2018-12-22T16:17:50.737Z,10.20
2018-12-22T16:20:19.020Z,10.30
2018-12-22T16:22:55.506Z,10.30
2018-12-22T16:25:23.776Z,10.30
2018-12-22T16:27:57.671Z,10.30
2018-12-22T16:30:37.223Z,10.30
2018-12-22T16:33:05.500Z,10.30
2018-12-22T16:35:33.845Z,10.30
2018-12-22T16:38:02.252Z,10.30
2018-12-22T16:40:30.628Z,10.30
2018-12-22T16:42:59.394Z,10.20
2018-12-22T16:45:27.782Z,10.20
2018-12-22T16:47:56.027Z,10.10
2018-12-22T16:50:24.779Z,10.00
2018-12-22T16:52:53.103Z,10.00
2018-12-22T16:55:21.401Z,9.90
2018-12-22T16:58:04.805Z,9.80
2018-12-22T17:00:41.703Z,9.80
2018-12-22T17:03:10.921Z,9.70
2018-12-22T17:05:39.595Z,9.50
2018-12-22T17:08:07.979Z,9.40
2018-12-22T17:10:36.351Z,9.40
2018-12-22T17:13:04.659Z,9.50
2018-12-22T17:15:32.981Z,9.40
2018-12-22T17:18:01.295Z,9.40
2018-12-22T17:20:30.259Z,9.40
2018-12-22T17:23:10.965Z,9.40
2018-12-22T17:25:40.974Z,9.40
2018-12-22T17:28:09.259Z,9.40
2018-12-22T17:30:37.739Z,9.30
2018-12-22T17:33:06.623Z,9.30
2018-12-22T17:35:35.724Z,9.30
2018-12-22T17:38:03.990Z,9.30
2018-12-22T17:40:32.194Z,9.30
2018-12-22T17:43:01.048Z,9.30
2018-12-22T17:45:29.253Z,9.30
2018-12-22T17:47:57.527Z,9.20
2018-12-22T17:50:25.767Z,9.20
2018-12-22T17:52:54.075Z,9.10
2018-12-22T17:55:22.428Z,9.20
2018-12-22T17:57:50.702Z,9.10
2018-12-22T18:00:20.354Z,9.10
2018-12-22T18:02:48.809Z,9.10
2018-12-22T18:05:17.059Z,9.20
2018-12-22T18:07:45.342Z,9.20
2018-12-22T18:10:13.591Z,9.20
2018-12-22T18:12:41.910Z,9.20
2018-12-22T18:15:23.759Z,9.20
2018-12-22T18:17:52.193Z,9.20
2018-12-22T18:20:20.444Z,9.20
2018-12-22T18:22:48.725Z,9.20
2018-12-22T18:25:21.371Z,9.10
2018-12-22T18:27:52.402Z,9.20
2018-12-22T18:30:20.744Z,9.30
2018-12-22T18:32:49.107Z,9.30
2018-12-22T18:35:17.315Z,9.30
2018-12-22T18:37:45.751Z,9.30
2018-12-22T18:40:19.329Z,9.30
2018-12-22T18:42:48.133Z,9.30
2018-12-22T18:45:16.473Z,9.20
2018-12-22T18:47:45.162Z,9.30
2018-12-22T18:50:21.525Z,9.30
2018-12-22T18:52:49.827Z,9.30
2018-12-22T18:55:18.145Z,9.30
2018-12-22T18:57:49.901Z,9.30
2018-12-22T19:00:22.599Z,9.30
2018-12-22T19:02:51.501Z,9.30
2018-12-22T19:05:20.674Z,9.30
2018-12-22T19:07:49.538Z,9.20
2018-12-22T19:10:25.820Z,9.20
2018-12-22T19:12:56.146Z,9.10
2018-12-22T19:15:24.355Z,9.00
2018-12-22T19:17:52.569Z,8.90
2018-12-22T19:20:27.427Z,8.90
2018-12-22T19:22:55.662Z,8.90
2018-12-22T19:25:24.677Z,8.90
2018-12-22T19:27:52.891Z,8.90
2018-12-22T19:30:21.103Z,8.90
2018-12-22T19:32:49.427Z,9.00
2018-12-22T19:35:17.691Z,9.00
2018-12-22T19:37:45.902Z,9.10
2018-12-22T19:40:14.183Z,9.10
2018-12-22T19:42:42.401Z,9.10
2018-12-22T19:45:10.871Z,9.10
2018-12-22T19:47:39.092Z,9.10
2018-12-22T19:50:07.863Z,9.20
2018-12-22T19:52:36.146Z,9.30
2018-12-22T19:55:06.536Z,9.30
2018-12-22T19:57:34.790Z,9.30
2018-12-22T20:00:03.109Z,9.30
2018-12-22T20:02:31.364Z,9.30
2018-12-22T20:04:59.764Z,9.30
2018-12-22T20:07:27.967Z,9.30
2018-12-22T20:09:56.323Z,9.40
2018-12-22T20:12:24.535Z,9.40
2018-12-22T20:14:52.774Z,9.40
2018-12-22T20:17:21.058Z,9.40
2018-12-22T20:19:49.261Z,9.50
2018-12-22T20:22:17.593Z,9.40
2018-12-22T20:24:45.822Z,9.40
2018-12-22T20:27:14.031Z,9.40
2018-12-22T20:29:42.241Z,9.40
2018-12-22T20:32:10.459Z,9.40
2018-12-22T20:34:38.778Z,9.40
2018-12-22T20:37:07.054Z,9.40
2018-12-22T20:39:35.338Z,9.40
2018-12-22T20:42:03.616Z,9.40
2018-12-22T20:44:31.881Z,9.30
2018-12-22T20:47:00.154Z,9.30
2018-12-22T20:49:28.447Z,9.30
2018-12-22T20:51:56.791Z,9.30
2018-12-22T20:54:25.006Z,9.30
2018-12-22T20:56:53.268Z,9.40
2018-12-22T20:59:21.479Z,9.40
2018-12-22T21:01:49.836Z,9.40
2018-12-22T21:04:19.919Z,9.40
2018-12-22T21:06:48.394Z,9.40
2018-12-22T21:09:16.696Z,9.40
2018-12-22T21:11:44.943Z,9.40
2018-12-22T21:14:13.160Z,9.40
2018-12-22T21:16:41.487Z,9.40
2018-12-22T21:19:09.703Z,9.30
2018-12-22T21:21:38.003Z,9.30
2018-12-22T21:24:06.239Z,9.30
2018-12-22T21:26:34.531Z,9.30
2018-12-22T21:29:03.014Z,9.30
2018-12-22T21:31:31.213Z,9.30
2018-12-22T21:33:59.441Z,9.30
2018-12-22T21:36:27.731Z,9.20
2018-12-22T21:38:55.953Z,9.20
2018-12-22T21:41:24.195Z,9.20
2018-12-22T21:43:52.486Z,9.20
2018-12-22T21:46:20.708Z,9.30
2018-12-22T21:48:49.000Z,9.20
2018-12-22T21:51:17.241Z,9.20
2018-12-22T21:53:45.546Z,9.20
2018-12-22T21:56:13.813Z,9.20
2018-12-22T21:58:42.085Z,9.20
2018-12-22T22:01:10.319Z,9.20
2018-12-22T22:03:38.881Z,9.20
2018-12-22T22:06:07.145Z,9.20
2018-12-22T22:08:35.480Z,9.20
2018-12-22T22:11:03.727Z,9.30
2018-12-22T22:13:31.985Z,9.20
2018-12-22T22:16:00.405Z,9.20
2018-12-22T22:18:28.613Z,9.20
2018-12-22T22:20:56.908Z,9.20
2018-12-22T22:23:25.132Z,9.20
2018-12-22T22:25:53.340Z,9.20
2018-12-22T22:28:21.555Z,9.20
2018-12-22T22:30:49.761Z,9.20
2018-12-22T22:33:18.023Z,9.20
2018-12-22T22:35:46.255Z,9.20
2018-12-22T22:38:14.487Z,9.20
2018-12-22T22:40:42.735Z,9.30
2018-12-22T22:43:11.358Z,9.30
2018-12-22T22:45:39.647Z,9.30
2018-12-22T22:48:07.859Z,9.30
2018-12-22T22:50:36.091Z,9.20
2018-12-22T22:53:04.359Z,9.20
2018-12-22T22:55:32.661Z,9.20
2018-12-22T22:58:00.975Z,9.20
2018-12-22T23:03:18.578Z,9.30
2018-12-22T23:05:46.785Z,9.30
2018-12-22T23:08:14.996Z,9.30
2018-12-22T23:10:43.227Z,9.30
2018-12-22T23:13:11.422Z,9.30
2018-12-22T23:15:39.633Z,9.30
2018-12-22T23:18:07.959Z,9.30
2018-12-22T23:20:36.181Z,9.30
2018-12-22T23:23:04.427Z,9.30
2018-12-22T23:25:32.651Z,9.30
2018-12-22T23:28:00.893Z,9.30
2018-12-22T23:30:29.410Z,9.30
2018-12-22T23:32:57.661Z,9.30
2018-12-22T23:35:25.979Z,9.30
2018-12-22T23:37:54.213Z,9.30
2018-12-22T23:40:22.624Z,9.30
2018-12-22T23:42:50.851Z,9.30
2018-12-22T23:45:19.071Z,9.30
2018-12-22T23:47:47.346Z,9.30
2018-12-22T23:50:15.600Z,9.30
2018-12-22T23:52:43.908Z,9.30
2018-12-22T23:55:12.224Z,9.30
2018-12-22T23:57:40.567Z,9.30
